createdAt,value
2023-04-05T00:02:18.928Z,98541.66
2023-04-05T00:04:50.692Z,98544.59
2023-04-05T00:07:19.362Z,98539.31
2023-04-05T00:09:46.503Z,98546.38
2023-04-05T00:12:13.597Z,98537.19
2023-04-05T00:14:40.421Z,98531.91
2023-04-05T00:17:08.929Z,98527.16
2023-04-05T00:19:38.270Z,98530.91
2023-04-05T00:22:05.487Z,98532.75
2023-04-05T00:24:34.185Z,98519.56
2023-04-05T00:27:01.466Z,98521.34
2023-04-05T00:29:28.604Z,98521.38
2023-04-05T00:31:56.353Z,98514.84
2023-04-05T00:34:23.532Z,98515.47
2023-04-05T00:36:50.260Z,98513.72
2023-04-05T00:39:17.187Z,98508.00
2023-04-05T00:41:45.822Z,98497.00
2023-04-05T00:44:14.320Z,98496.22
2023-04-05T00:46:42.267Z,98489.28
2023-04-05T00:49:09.610Z,98493.44
2023-04-05T00:51:36.997Z,98494.47
2023-04-05T00:54:03.941Z,98489.78
2023-04-05T00:56:31.406Z,98486.22
2023-04-05T00:58:58.270Z,98481.69
2023-04-05T01:01:28.091Z,98477.00
2023-04-05T01:04:03.238Z,98476.78
2023-04-05T01:07:04.335Z,98461.66
2023-04-05T01:09:34.960Z,98471.06
2023-04-05T01:12:07.205Z,98457.06
2023-04-05T01:14:50.199Z,98458.28
2023-04-05T01:17:22.638Z,98451.41
2023-04-05T01:19:54.568Z,98450.88
2023-04-05T01:22:38.274Z,98442.47
2023-04-05T01:25:28.571Z,98442.47
2023-04-05T01:27:58.305Z,98427.28
2023-04-05T01:30:32.287Z,98435.03
2023-04-05T01:33:18.719Z,98425.16
2023-04-05T01:36:04.457Z,98418.31
2023-04-05T01:38:33.724Z,98423.25
2023-04-05T01:41:00.628Z,98420.47
2023-04-05T01:43:28.858Z,98416.16
2023-04-05T01:45:55.638Z,98406.50
2023-04-05T01:48:22.354Z,98400.78
2023-04-05T01:50:49.186Z,98402.78
2023-04-05T01:53:16.136Z,98401.03
2023-04-05T01:55:42.813Z,98405.59
2023-04-05T01:58:09.512Z,98406.56
2023-04-05T02:00:36.501Z,98396.00
2023-04-05T02:03:03.388Z,98405.00
2023-04-05T02:05:30.267Z,98397.88
2023-04-05T02:07:56.998Z,98398.53
2023-04-05T02:10:24.832Z,98393.25
2023-04-05T02:12:51.713Z,98387.38
2023-04-05T02:15:18.464Z,98382.25
2023-04-05T02:17:48.076Z,98381.69
2023-04-05T02:20:15.001Z,98377.78
2023-04-05T02:22:45.467Z,98374.19
2023-04-05T02:25:13.603Z,98384.25
2023-04-05T02:27:41.407Z,98371.63
2023-04-05T02:30:08.839Z,98368.94
2023-04-05T02:32:35.555Z,98374.13
2023-04-05T02:35:02.856Z,98368.78
2023-04-05T02:37:29.626Z,98363.22
2023-04-05T02:39:56.336Z,98359.78
2023-04-05T02:42:23.045Z,98348.97
2023-04-05T02:44:51.719Z,98360.34
2023-04-05T02:47:21.774Z,98351.88
2023-04-05T02:49:54.437Z,98351.94
2023-04-05T02:52:23.709Z,98358.19
2023-04-05T02:54:50.599Z,98359.66
2023-04-05T02:57:23.273Z,98348.59
2023-04-05T03:00:05.363Z,98347.50
2023-04-05T03:02:32.976Z,98340.66
2023-04-05T03:05:03.464Z,98335.13
2023-04-05T03:07:33.547Z,98333.53
2023-04-05T03:10:05.209Z,98332.94
2023-04-05T03:12:32.418Z,98326.88
2023-04-05T03:14:59.325Z,98331.81
2023-04-05T03:17:32.803Z,98310.78
2023-04-05T03:20:09.188Z,98327.28
2023-04-05T03:22:36.932Z,98323.38
2023-04-05T03:25:04.922Z,98326.50
2023-04-05T03:27:32.870Z,98315.94
2023-04-05T03:30:07.847Z,98312.81
2023-04-05T03:32:39.986Z,98307.31
2023-04-05T03:35:16.964Z,98298.44
2023-04-05T03:37:46.429Z,98298.66
2023-04-05T03:40:13.942Z,98299.06
2023-04-05T03:42:40.764Z,98296.34
2023-04-05T03:45:07.854Z,98298.44
2023-04-05T03:47:34.980Z,98310.97
2023-04-05T03:50:05.879Z,98321.91
2023-04-05T03:52:32.684Z,98310.53
2023-04-05T03:55:00.420Z,98300.13
2023-04-05T03:57:30.490Z,98299.53
2023-04-05T04:00:00.747Z,98299.13
2023-04-05T04:02:30.270Z,98308.97
2023-04-05T04:04:57.852Z,98290.56
2023-04-05T04:07:26.962Z,98292.75
2023-04-05T04:09:55.684Z,98294.66
2023-04-05T04:12:22.746Z,98289.19
2023-04-05T04:14:56.148Z,98286.63
2023-04-05T04:17:53.183Z,98283.91
2023-04-05T04:20:35.567Z,98285.84
2023-04-05T04:23:10.512Z,98285.03
2023-04-05T04:26:15.536Z,98287.56
2023-04-05T04:29:20.639Z,98280.22
2023-04-05T04:32:17.127Z,98281.38
2023-04-05T04:34:59.384Z,98277.47
2023-04-05T04:37:33.804Z,98276.47
2023-04-05T04:40:53.804Z,98289.38
2023-04-05T04:43:43.811Z,98294.25
2023-04-05T04:46:19.414Z,98289.56
2023-04-05T04:48:57.847Z,98279.22
2023-04-05T04:51:34.202Z,98281.53
2023-04-05T04:54:00.961Z,98286.25
2023-04-05T04:56:27.629Z,98285.09
2023-04-05T04:58:57.001Z,98284.72
2023-04-05T05:01:25.351Z,98269.47
2023-04-05T05:03:52.658Z,98278.44
2023-04-05T05:06:35.233Z,98243.34
2023-04-05T05:09:02.054Z,98241.97
2023-04-05T05:11:30.891Z,98243.53
2023-04-05T05:13:57.846Z,98245.25
2023-04-05T05:16:26.983Z,98271.75
2023-04-05T05:18:54.684Z,98276.25
2023-04-05T05:21:24.301Z,98275.28
2023-04-05T05:23:55.467Z,98270.38
2023-04-05T05:26:22.119Z,98263.38
2023-04-05T05:28:50.149Z,98254.31
2023-04-05T05:31:18.156Z,98246.06
2023-04-05T05:33:47.981Z,98250.41
2023-04-05T05:36:14.701Z,98238.47
2023-04-05T05:38:43.257Z,98236.25
2023-04-05T05:41:09.947Z,98244.84
2023-04-05T05:43:36.666Z,98241.84
2023-04-05T05:46:03.453Z,98228.09
2023-04-05T05:48:30.197Z,98226.91
2023-04-05T05:50:57.439Z,98234.00
2023-04-05T05:53:24.318Z,98238.47
2023-04-05T05:55:51.068Z,98243.41
2023-04-05T05:58:18.035Z,98238.41
2023-04-05T06:00:44.753Z,98224.19
2023-04-05T06:03:12.248Z,98240.75
2023-04-05T06:05:39.164Z,98246.44
2023-04-05T06:08:05.890Z,98267.69
2023-04-05T06:10:32.902Z,98274.44
2023-04-05T06:12:59.635Z,98274.22
2023-04-05T06:15:27.384Z,98274.56
2023-04-05T06:17:54.074Z,98271.59
2023-04-05T06:20:20.759Z,98272.88
2023-04-05T06:22:47.492Z,98267.34
2023-04-05T06:25:15.419Z,98279.19
2023-04-05T06:27:43.141Z,98303.69
2023-04-05T06:30:10.676Z,98318.75
2023-04-05T06:32:37.483Z,98332.22
2023-04-05T06:35:04.580Z,98321.53
2023-04-05T06:37:31.326Z,98336.31
2023-04-05T06:39:59.293Z,98366.69
2023-04-05T06:42:27.905Z,98363.09
2023-04-05T06:44:59.932Z,98399.19
2023-04-05T06:47:26.753Z,98404.34
2023-04-05T06:49:53.707Z,98415.41
2023-04-05T06:52:20.404Z,98443.19
2023-04-05T06:54:47.238Z,98444.00
2023-04-05T06:57:13.946Z,98445.63
2023-04-05T06:59:40.946Z,98486.38
2023-04-05T07:02:07.676Z,98500.59
2023-04-05T07:04:37.209Z,98494.97
2023-04-05T07:07:04.229Z,98534.00
2023-04-05T07:09:33.145Z,98539.94
2023-04-05T07:12:01.613Z,98538.09
2023-04-05T07:14:30.688Z,98552.56
2023-04-05T07:16:57.496Z,98543.16
2023-04-05T07:19:24.254Z,98542.78
2023-04-05T07:21:51.090Z,98571.44
2023-04-05T07:24:17.838Z,98568.78
2023-04-05T07:26:45.225Z,98555.97
2023-04-05T07:29:13.094Z,98562.16
2023-04-05T07:31:40.643Z,98572.22
2023-04-05T07:34:07.439Z,98585.38
2023-04-05T07:36:36.688Z,98589.00
2023-04-05T07:39:05.500Z,98574.75
2023-04-05T07:41:32.488Z,98604.56
2023-04-05T07:43:59.420Z,98608.59
2023-04-05T07:46:27.475Z,98605.31
2023-04-05T07:48:54.629Z,98605.31
2023-04-05T07:51:21.446Z,98602.16
2023-04-05T07:53:49.014Z,98601.91
2023-04-05T07:56:16.152Z,98591.84
2023-04-05T07:58:42.942Z,98579.00
2023-04-05T08:01:10.887Z,98598.69
2023-04-05T08:03:40.329Z,98600.78
2023-04-05T08:06:12.044Z,98602.69
2023-04-05T08:08:38.937Z,98602.56
2023-04-05T08:11:05.726Z,98596.22
2023-04-05T08:13:34.114Z,98591.88
2023-04-05T08:16:02.336Z,98582.72
2023-04-05T08:18:29.196Z,98606.28
2023-04-05T08:20:56.906Z,98606.81
2023-04-05T08:23:23.849Z,98608.41
2023-04-05T08:25:50.832Z,98594.25
2023-04-05T08:28:17.707Z,98601.16
2023-04-05T08:30:46.050Z,98604.84
2023-04-05T08:33:13.284Z,98603.31
2023-04-05T08:35:41.185Z,98590.78
2023-04-05T08:38:07.889Z,98609.41
2023-04-05T08:40:46.360Z,98608.38
2023-04-05T08:43:46.235Z,98598.31
2023-04-05T08:46:16.673Z,98597.25
2023-04-05T08:48:43.651Z,98608.91
2023-04-05T08:51:10.532Z,98602.94
2023-04-05T08:53:37.418Z,98599.59
2023-04-05T08:56:04.630Z,98597.22
2023-04-05T08:58:32.441Z,98606.47
2023-04-05T09:01:00.120Z,98601.81
2023-04-05T09:03:39.479Z,98600.06
2023-04-05T09:06:09.276Z,98608.88
2023-04-05T09:08:36.418Z,98602.88
2023-04-05T09:11:03.280Z,98605.00
2023-04-05T09:13:31.056Z,98608.44
2023-04-05T09:15:58.313Z,98595.59
2023-04-05T09:18:27.405Z,98607.53
2023-04-05T09:21:05.978Z,98595.13
2023-04-05T09:23:34.660Z,98603.53
2023-04-05T09:26:01.391Z,98599.81
2023-04-05T09:28:40.859Z,98608.91
2023-04-05T09:31:07.577Z,98602.44
2023-04-05T09:33:34.419Z,98598.53
2023-04-05T09:36:01.655Z,98594.31
2023-04-05T09:38:45.494Z,98591.25
2023-04-05T09:41:12.248Z,98595.44
2023-04-05T09:43:40.940Z,98586.31
2023-04-05T09:46:16.410Z,98594.50
2023-04-05T09:48:50.227Z,98592.38
2023-04-05T09:51:18.603Z,98588.25
2023-04-05T09:54:02.174Z,98585.16
2023-04-05T09:56:31.892Z,98588.47
2023-04-05T09:59:11.246Z,98588.63
2023-04-05T10:01:43.287Z,98587.47
2023-04-05T10:04:10.479Z,98588.41
2023-04-05T10:06:41.837Z,98583.84
2023-04-05T10:09:10.177Z,98583.16
2023-04-05T10:11:38.443Z,98580.88
2023-04-05T10:14:07.757Z,98574.03
2023-04-05T10:16:41.781Z,98585.31
2023-04-05T10:19:18.773Z,98576.50
2023-04-05T10:21:46.941Z,98572.13
2023-04-05T10:24:22.869Z,98577.03
2023-04-05T10:27:04.607Z,98575.69
2023-04-05T10:29:38.715Z,98570.59
2023-04-05T10:32:13.693Z,98572.03
2023-04-05T10:34:55.221Z,98567.59
2023-04-05T10:37:33.272Z,98563.47
2023-04-05T10:40:03.717Z,98572.34
2023-04-05T10:42:41.955Z,98568.19
2023-04-05T10:45:11.766Z,98557.41
2023-04-05T10:48:03.116Z,98569.25
2023-04-05T10:50:30.202Z,98571.75
2023-04-05T10:52:59.015Z,98573.94
2023-04-05T10:55:26.482Z,98569.84
2023-04-05T10:57:54.991Z,98562.09
2023-04-05T11:00:23.532Z,98560.81
2023-04-05T11:02:55.498Z,98561.63
2023-04-05T11:05:32.115Z,98558.06
2023-04-05T11:08:09.515Z,98560.81
2023-04-05T11:10:38.251Z,98549.00
2023-04-05T11:13:07.509Z,98544.28
2023-04-05T11:15:35.340Z,98543.22
2023-04-05T11:18:17.499Z,98549.16
2023-04-05T11:20:56.338Z,98550.47
2023-04-05T11:23:25.276Z,98546.19
2023-04-05T11:26:06.413Z,98536.06
2023-04-05T11:28:37.918Z,98533.00
2023-04-05T11:31:19.357Z,98532.50
2023-04-05T11:33:55.152Z,98539.63
2023-04-05T11:36:53.063Z,98536.47
2023-04-05T11:39:19.823Z,98528.69
2023-04-05T11:41:58.363Z,98528.84
2023-04-05T11:44:25.254Z,98520.00
2023-04-05T11:46:53.480Z,98515.56
2023-04-05T11:49:24.496Z,98519.16
2023-04-05T11:51:53.443Z,98525.44
2023-04-05T11:54:33.137Z,98515.84
2023-04-05T11:57:00.420Z,98508.78
2023-04-05T11:59:34.889Z,98512.63
2023-04-05T12:02:04.256Z,98518.28
2023-04-05T12:04:31.132Z,98518.47
2023-04-05T12:07:14.740Z,98511.13
2023-04-05T12:10:08.556Z,98511.19
2023-04-05T12:12:43.115Z,98510.50
2023-04-05T12:15:13.858Z,98502.63
2023-04-05T12:17:45.898Z,98498.97
2023-04-05T12:20:15.200Z,98498.03
2023-04-05T12:22:44.434Z,98489.19
2023-04-05T12:25:11.954Z,98495.91
2023-04-05T12:27:39.571Z,98493.22
2023-04-05T12:30:08.097Z,98487.03
2023-04-05T12:32:55.172Z,98488.44
2023-04-05T12:35:33.118Z,98488.03
2023-04-05T12:38:05.958Z,98480.22
2023-04-05T12:40:35.049Z,98482.03
2023-04-05T12:43:07.564Z,98476.59
2023-04-05T12:45:42.239Z,98478.84
2023-04-05T12:48:11.968Z,98468.25
2023-04-05T12:50:44.599Z,98474.22
2023-04-05T12:53:18.449Z,98470.97
2023-04-05T12:55:49.564Z,98468.84
2023-04-05T12:58:17.864Z,98474.72
2023-04-05T13:00:45.524Z,98458.09
2023-04-05T13:03:21.362Z,98455.72
2023-04-05T13:05:51.981Z,98452.34
2023-04-05T13:08:19.187Z,98455.63
2023-04-05T13:10:47.111Z,98456.25
2023-04-05T13:13:14.592Z,98446.00
2023-04-05T13:15:41.709Z,98447.41
2023-04-05T13:18:08.943Z,98443.06
2023-04-05T13:20:36.213Z,98449.72
2023-04-05T13:23:03.037Z,98448.78
2023-04-05T13:25:29.905Z,98431.94
2023-04-05T13:27:56.746Z,98433.38
2023-04-05T13:30:23.645Z,98432.28
2023-04-05T13:32:50.515Z,98430.69
2023-04-05T13:35:17.314Z,98416.47
2023-04-05T13:37:43.964Z,98423.91
2023-04-05T13:40:14.693Z,98420.34
2023-04-05T13:42:41.435Z,98414.03
2023-04-05T13:45:08.597Z,98416.81
2023-04-05T13:47:35.549Z,98414.63
2023-04-05T13:50:03.123Z,98419.28
2023-04-05T13:52:30.064Z,98412.88
2023-04-05T13:55:02.396Z,98404.72
2023-04-05T13:57:30.682Z,98403.13
2023-04-05T13:59:57.544Z,98406.09
2023-04-05T14:02:26.152Z,98410.34
2023-04-05T14:04:56.059Z,98409.84
2023-04-05T14:07:23.603Z,98406.03
2023-04-05T14:09:50.530Z,98406.88
2023-04-05T14:12:18.042Z,98398.63
2023-04-05T14:14:44.955Z,98402.00
2023-04-05T14:17:12.833Z,98399.28
2023-04-05T14:19:39.724Z,98407.00
2023-04-05T14:22:06.417Z,98398.41
2023-04-05T14:24:33.359Z,98390.63
2023-04-05T14:27:00.146Z,98382.66
2023-04-05T14:29:27.132Z,98378.66
2023-04-05T14:31:55.918Z,98370.97
2023-04-05T14:34:22.761Z,98369.59
2023-04-05T14:36:49.824Z,98367.38
2023-04-05T14:39:16.631Z,98363.41
2023-04-05T14:41:44.183Z,98357.59
2023-04-05T14:44:10.805Z,98367.00
2023-04-05T14:46:37.711Z,98358.34
2023-04-05T14:49:04.429Z,98362.88
2023-04-05T14:51:31.547Z,98356.91
2023-04-05T14:53:58.452Z,98354.47
2023-04-05T14:56:26.455Z,98356.47
2023-04-05T14:58:53.334Z,98345.69
2023-04-05T15:01:20.237Z,98355.53
2023-04-05T15:03:48.496Z,98333.28
2023-04-05T15:06:16.475Z,98334.97
2023-04-05T15:08:43.248Z,98338.00
2023-04-05T15:11:10.022Z,98340.16
2023-04-05T15:13:36.925Z,98333.09
2023-04-05T15:16:03.808Z,98335.53
2023-04-05T15:18:30.559Z,98339.19
2023-04-05T15:20:57.396Z,98338.91
2023-04-05T15:23:24.457Z,98332.34
2023-04-05T15:25:51.222Z,98326.47
2023-04-05T15:28:17.903Z,98328.53
2023-04-05T15:30:45.997Z,98332.44
2023-04-05T15:33:12.689Z,98326.47
2023-04-05T15:35:39.486Z,98326.06
2023-04-05T15:38:06.687Z,98324.63
2023-04-05T15:40:33.451Z,98318.97
2023-04-05T15:43:00.179Z,98326.22
2023-04-05T15:45:27.237Z,98325.47
2023-04-05T15:47:53.970Z,98325.34
2023-04-05T15:50:22.015Z,98316.31
2023-04-05T15:52:48.718Z,98314.03
2023-04-05T15:55:15.686Z,98325.13
2023-04-05T15:57:42.358Z,98307.53
2023-04-05T16:00:09.792Z,98311.09
2023-04-05T16:02:37.861Z,98310.97
2023-04-05T16:05:04.985Z,98308.47
2023-04-05T16:07:31.976Z,98311.97
2023-04-05T16:09:58.688Z,98306.00
2023-04-05T16:12:25.866Z,98302.50
2023-04-05T16:14:52.718Z,98301.41
2023-04-05T16:17:19.460Z,98300.97
2023-04-05T16:19:46.145Z,98298.53
2023-04-05T16:22:13.227Z,98298.91
2023-04-05T16:24:40.032Z,98296.91
2023-04-05T16:27:06.940Z,98286.53
2023-04-05T16:29:33.952Z,98286.69
2023-04-05T16:32:01.654Z,98281.06
2023-04-05T16:34:28.815Z,98286.97
2023-04-05T16:36:55.559Z,98275.00
2023-04-05T16:39:22.326Z,98267.38
2023-04-05T16:41:49.233Z,98267.16
2023-04-05T16:44:16.216Z,98276.06
2023-04-05T16:46:44.397Z,98276.75
2023-04-05T16:49:11.184Z,98279.47
2023-04-05T16:51:37.909Z,98279.94
2023-04-05T16:54:04.744Z,98276.88
2023-04-05T16:56:31.602Z,98282.88
2023-04-05T16:58:58.607Z,98271.25
2023-04-05T17:01:25.579Z,98277.03
2023-04-05T17:03:52.401Z,98272.88
2023-04-05T17:06:19.104Z,98280.16
2023-04-05T17:08:45.881Z,98275.28
2023-04-05T17:11:12.628Z,98273.34
2023-04-05T17:13:39.354Z,98267.69
2023-04-05T17:16:06.566Z,98272.38
2023-04-05T17:18:33.290Z,98283.03
2023-04-05T17:21:00.005Z,98277.06
2023-04-05T17:23:26.758Z,98276.28
2023-04-05T17:25:53.468Z,98278.09
2023-04-05T17:28:20.191Z,98271.44
2023-04-05T17:30:47.268Z,98273.28
2023-04-05T17:33:14.112Z,98281.84
2023-04-05T17:35:40.866Z,98277.44
2023-04-05T17:38:07.682Z,98272.78
2023-04-05T17:40:34.456Z,98277.47
2023-04-05T17:43:01.430Z,98269.72
2023-04-05T17:45:28.771Z,98277.97
2023-04-05T17:47:55.785Z,98273.09
2023-04-05T17:50:24.488Z,98278.56
2023-04-05T17:52:51.656Z,98276.19
2023-04-05T17:55:18.423Z,98281.34
2023-04-05T17:57:45.320Z,98283.19
2023-04-05T18:00:12.779Z,98281.63
2023-04-05T18:02:41.029Z,98281.56
2023-04-05T18:05:08.479Z,98291.72
2023-04-05T18:07:36.969Z,98288.06
2023-04-05T18:10:07.495Z,98282.09
2023-04-05T18:12:34.701Z,98279.75
2023-04-05T18:15:01.416Z,98293.94
2023-04-05T18:17:28.439Z,98294.16
2023-04-05T18:19:55.217Z,98290.53
2023-04-05T18:22:22.044Z,98296.97
2023-04-05T18:24:48.810Z,98293.56
2023-04-05T18:27:15.619Z,98292.53
2023-04-05T18:29:42.733Z,98298.44
2023-04-05T18:32:09.778Z,98294.28
2023-04-05T18:34:37.169Z,98281.81
2023-04-05T18:37:04.214Z,98287.88
2023-04-05T18:39:31.009Z,98296.09
2023-04-05T18:41:57.899Z,98290.84
2023-04-05T18:44:24.794Z,98284.81
2023-04-05T18:46:51.745Z,98285.00
2023-04-05T18:49:19.204Z,98285.84
2023-04-05T18:51:46.132Z,98301.72
2023-04-05T18:54:14.108Z,98294.16
2023-04-05T18:56:41.362Z,98307.06
2023-04-05T18:59:08.376Z,98306.16
2023-04-05T19:01:37.358Z,98310.59
2023-04-05T19:04:06.040Z,98310.53
2023-04-05T19:06:32.888Z,98302.22
2023-04-05T19:08:59.793Z,98300.91
2023-04-05T19:11:26.617Z,98312.53
2023-04-05T19:13:54.075Z,98319.59
2023-04-05T19:16:21.190Z,98314.94
2023-04-05T19:18:47.892Z,98319.72
2023-04-05T19:21:14.684Z,98313.41
2023-04-05T19:23:41.447Z,98320.09
2023-04-05T19:26:08.450Z,98316.69
2023-04-05T19:28:35.127Z,98316.44
2023-04-05T19:31:02.455Z,98318.91
2023-04-05T19:33:31.549Z,98328.72
2023-04-05T19:35:58.821Z,98324.31
2023-04-05T19:38:25.894Z,98323.81
2023-04-05T19:40:53.060Z,98318.56
2023-04-05T19:43:19.772Z,98322.84
2023-04-05T19:45:49.885Z,98322.72
2023-04-05T19:48:36.591Z,98325.84
2023-04-05T19:51:06.767Z,98328.97
2023-04-05T19:53:49.432Z,98320.69
2023-04-05T19:56:28.751Z,98319.66
2023-04-05T19:59:01.550Z,98320.91
2023-04-05T20:01:40.062Z,98312.72
2023-04-05T20:04:17.408Z,98315.78
2023-04-05T20:06:51.507Z,98315.34
2023-04-05T20:09:20.310Z,98309.41
2023-04-05T20:11:52.104Z,98308.91
2023-04-05T20:14:24.393Z,98306.75
2023-04-05T20:16:51.377Z,98300.88
2023-04-05T20:19:27.774Z,98298.78
2023-04-05T20:21:54.527Z,98294.44
2023-04-05T20:24:22.189Z,98297.00
2023-04-05T20:26:48.979Z,98302.41
2023-04-05T20:29:20.650Z,98295.63
2023-04-05T20:31:47.715Z,98296.72
2023-04-05T20:34:15.560Z,98292.13
2023-04-05T20:36:50.118Z,98291.81
2023-04-05T20:39:17.054Z,98288.47
2023-04-05T20:41:44.584Z,98289.00
2023-04-05T20:44:11.316Z,98280.75
2023-04-05T20:46:38.093Z,98285.88
2023-04-05T20:49:04.779Z,98294.69
2023-04-05T20:51:31.889Z,98297.41
2023-04-05T20:53:58.546Z,98300.78
2023-04-05T20:56:25.339Z,98303.03
2023-04-05T20:58:52.652Z,98306.06
2023-04-05T21:01:20.101Z,98300.53
2023-04-05T21:03:46.822Z,98296.63
2023-04-05T21:06:13.642Z,98301.63
2023-04-05T21:08:41.553Z,98302.53
2023-04-05T21:11:08.541Z,98306.94
2023-04-05T21:13:35.905Z,98302.41
2023-04-05T21:16:02.912Z,98294.97
2023-04-05T21:18:29.893Z,98289.25
2023-04-05T21:20:56.894Z,98286.00
2023-04-05T21:23:28.266Z,98288.16
2023-04-05T21:25:56.260Z,98282.81
2023-04-05T21:28:23.541Z,98291.13
2023-04-05T21:30:50.395Z,98284.78
2023-04-05T21:33:17.374Z,98287.00
2023-04-05T21:35:44.116Z,98278.94
2023-04-05T21:38:12.941Z,98276.22
2023-04-05T21:40:41.172Z,98268.19
2023-04-05T21:43:07.996Z,98283.75
2023-04-05T21:45:34.653Z,98279.03
2023-04-05T21:48:01.442Z,98272.91
2023-04-05T21:50:28.140Z,98262.09
2023-04-05T21:52:54.914Z,98244.84
2023-04-05T21:55:21.770Z,98256.97
2023-04-05T21:57:48.388Z,98254.75
2023-04-05T22:00:15.709Z,98253.97
2023-04-05T22:02:42.459Z,98254.56
2023-04-05T22:05:09.923Z,98247.66
2023-04-05T22:07:36.804Z,98245.75
2023-04-05T22:10:04.194Z,98245.09
2023-04-05T22:12:30.953Z,98240.63
2023-04-05T22:14:57.777Z,98240.25
2023-04-05T22:17:24.590Z,98238.13
2023-04-05T22:19:51.645Z,98242.53
2023-04-05T22:22:19.423Z,98246.44
2023-04-05T22:24:46.328Z,98240.41
2023-04-05T22:27:13.078Z,98221.78
2023-04-05T22:29:40.006Z,98227.47
2023-04-05T22:32:07.227Z,98226.03
2023-04-05T22:34:33.932Z,98221.69
2023-04-05T22:37:00.692Z,98218.88
2023-04-05T22:39:27.913Z,98213.44
2023-04-05T22:41:55.036Z,98209.06
2023-04-05T22:44:22.183Z,98214.31
2023-04-05T22:46:48.923Z,98216.09
2023-04-05T22:49:15.604Z,98199.94
2023-04-05T22:51:42.348Z,98204.38
2023-04-05T22:54:09.030Z,98204.63
2023-04-05T22:56:35.726Z,98204.50
2023-04-05T22:59:02.581Z,98211.44
2023-04-05T23:01:29.251Z,98189.94
2023-04-05T23:03:55.974Z,98203.63
2023-04-05T23:06:22.594Z,98184.91
2023-04-05T23:08:49.314Z,98195.94
2023-04-05T23:11:16.605Z,98196.25
2023-04-05T23:13:43.252Z,98185.13
2023-04-05T23:16:10.068Z,98192.69
2023-04-05T23:18:36.777Z,98188.56
2023-04-05T23:21:03.598Z,98192.16
2023-04-05T23:23:30.431Z,98182.22
2023-04-05T23:25:57.286Z,98182.44
2023-04-05T23:28:23.918Z,98184.41
2023-04-05T23:30:50.601Z,98177.38
2023-04-05T23:33:17.247Z,98174.81
2023-04-05T23:35:44.056Z,98171.34
2023-04-05T23:38:11.181Z,98170.44
2023-04-05T23:40:37.915Z,98173.69
2023-04-05T23:43:04.762Z,98166.81
2023-04-05T23:45:31.470Z,98157.22
2023-04-05T23:47:58.205Z,98152.41
2023-04-05T23:50:25.036Z,98165.97
2023-04-05T23:52:51.857Z,98168.19
2023-04-05T23:55:18.757Z,98159.94
2023-04-05T23:57:45.894Z,98151.94
